sensor_id;sensor_type;location;lat;lon;timestamp;P1;durP1;ratioP1;P2;durP2;ratioP2
17890;SDS011;9071;48.220;14.480;2023-06-19T00:02:00;11.38;;;8.43;;
17890;SDS011;9071;48.220;14.480;2023-06-19T00:07:03;11.30;;;8.40;;
17890;SDS011;9071;48.220;14.480;2023-06-19T00:12:07;10.63;;;8.00;;
17890;SDS011;9071;48.220;14.480;2023-06-19T00:17:09;9.73;;;8.60;;
17890;SDS011;9071;48.220;14.480;2023-06-19T00:22:12;10.83;;;8.57;;
17890;SDS011;9071;48.220;14.480;2023-06-19T00:27:15;10.37;;;8.20;;
17890;SDS011;9071;48.220;14.480;2023-06-19T00:32:18;11.23;;;8.33;;
17890;SDS011;9071;48.220;14.480;2023-06-19T00:37:20;10.97;;;8.23;;
17890;SDS011;9071;48.220;14.480;2023-06-19T00:42:24;10.43;;;8.70;;
17890;SDS011;9071;48.220;14.480;2023-06-19T00:47:26;10.40;;;8.93;;
17890;SDS011;9071;48.220;14.480;2023-06-19T00:52:28;10.77;;;8.63;;
17890;SDS011;9071;48.220;14.480;2023-06-19T00:57:31;12.57;;;9.77;;
17890;SDS011;9071;48.220;14.480;2023-06-19T01:02:34;12.03;;;9.53;;
17890;SDS011;9071;48.220;14.480;2023-06-19T01:07:38;11.93;;;9.20;;
17890;SDS011;9071;48.220;14.480;2023-06-19T01:12:49;11.67;;;9.50;;
17890;SDS011;9071;48.220;14.480;2023-06-19T01:18:00;11.73;;;9.40;;
17890;SDS011;9071;48.220;14.480;2023-06-19T01:23:08;10.93;;;9.07;;
17890;SDS011;9071;48.220;14.480;2023-06-19T01:28:10;11.67;;;9.47;;
17890;SDS011;9071;48.220;14.480;2023-06-19T01:33:15;12.10;;;9.63;;
17890;SDS011;9071;48.220;14.480;2023-06-19T01:38:22;14.63;;;9.67;;
17890;SDS011;9071;48.220;14.480;2023-06-19T01:43:26;13.80;;;10.03;;
17890;SDS011;9071;48.220;14.480;2023-06-19T01:48:29;13.60;;;11.43;;
17890;SDS011;9071;48.220;14.480;2023-06-19T01:53:33;14.00;;;11.00;;
17890;SDS011;9071;48.220;14.480;2023-06-19T01:58:35;13.83;;;10.93;;
17890;SDS011;9071;48.220;14.480;2023-06-19T02:03:37;15.87;;;11.40;;
17890;SDS011;9071;48.220;14.480;2023-06-19T02:08:41;15.43;;;11.90;;
17890;SDS011;9071;48.220;14.480;2023-06-19T02:13:43;14.70;;;11.23;;
17890;SDS011;9071;48.220;14.480;2023-06-19T02:18:45;16.03;;;12.33;;
17890;SDS011;9071;48.220;14.480;2023-06-19T02:23:48;18.27;;;13.20;;
17890;SDS011;9071;48.220;14.480;2023-06-19T02:28:50;15.23;;;12.57;;
17890;SDS011;9071;48.220;14.480;2023-06-19T02:33:52;17.83;;;12.77;;
17890;SDS011;9071;48.220;14.480;2023-06-19T02:38:56;15.30;;;11.63;;
17890;SDS011;9071;48.220;14.480;2023-06-19T02:43:58;19.30;;;13.93;;
17890;SDS011;9071;48.220;14.480;2023-06-19T02:49:01;17.30;;;13.47;;
17890;SDS011;9071;48.220;14.480;2023-06-19T02:54:05;15.07;;;12.90;;
17890;SDS011;9071;48.220;14.480;2023-06-19T02:59:07;15.40;;;12.70;;
17890;SDS011;9071;48.220;14.480;2023-06-19T03:04:09;15.90;;;12.47;;
17890;SDS011;9071;48.220;14.480;2023-06-19T03:09:12;16.70;;;13.67;;
17890;SDS011;9071;48.220;14.480;2023-06-19T03:14:15;16.73;;;12.80;;
17890;SDS011;9071;48.220;14.480;2023-06-19T03:19:17;15.80;;;12.97;;
17890;SDS011;9071;48.220;14.480;2023-06-19T03:24:21;15.13;;;12.67;;
17890;SDS011;9071;48.220;14.480;2023-06-19T03:29:23;17.97;;;13.37;;
17890;SDS011;9071;48.220;14.480;2023-06-19T03:34:25;18.53;;;13.70;;
17890;SDS011;9071;48.220;14.480;2023-06-19T03:39:28;15.43;;;13.13;;
17890;SDS011;9071;48.220;14.480;2023-06-19T03:44:30;18.70;;;13.60;;
17890;SDS011;9071;48.220;14.480;2023-06-19T03:49:32;16.90;;;13.47;;
17890;SDS011;9071;48.220;14.480;2023-06-19T03:54:36;17.43;;;13.30;;
17890;SDS011;9071;48.220;14.480;2023-06-19T03:59:38;19.17;;;13.80;;
17890;SDS011;9071;48.220;14.480;2023-06-19T04:04:40;16.93;;;14.17;;
17890;SDS011;9071;48.220;14.480;2023-06-19T04:09:44;21.47;;;14.07;;
17890;SDS011;9071;48.220;14.480;2023-06-19T04:14:46;19.13;;;14.57;;
17890;SDS011;9071;48.220;14.480;2023-06-19T04:19:48;18.13;;;13.60;;
17890;SDS011;9071;48.220;14.480;2023-06-19T04:24:51;15.33;;;13.27;;
17890;SDS011;9071;48.220;14.480;2023-06-19T04:29:53;16.70;;;13.73;;
17890;SDS011;9071;48.220;14.480;2023-06-19T04:34:55;17.07;;;14.90;;
17890;SDS011;9071;48.220;14.480;2023-06-19T04:39:59;17.73;;;14.60;;
17890;SDS011;9071;48.220;14.480;2023-06-19T04:45:01;17.67;;;13.63;;
17890;SDS011;9071;48.220;14.480;2023-06-19T04:50:05;20.80;;;13.63;;
17890;SDS011;9071;48.220;14.480;2023-06-19T04:55:10;17.20;;;12.93;;
17890;SDS011;9071;48.220;14.480;2023-06-19T05:00:12;13.23;;;11.33;;
17890;SDS011;9071;48.220;14.480;2023-06-19T05:05:15;14.87;;;12.37;;
17890;SDS011;9071;48.220;14.480;2023-06-19T05:10:18;13.88;;;11.45;;
17890;SDS011;9071;48.220;14.480;2023-06-19T05:15:21;15.35;;;11.63;;
17890;SDS011;9071;48.220;14.480;2023-06-19T05:20:23;14.05;;;11.40;;
17890;SDS011;9071;48.220;14.480;2023-06-19T05:25:26;13.80;;;10.93;;
17890;SDS011;9071;48.220;14.480;2023-06-19T05:30:28;12.95;;;10.40;;
17890;SDS011;9071;48.220;14.480;2023-06-19T05:35:31;10.93;;;9.65;;
17890;SDS011;9071;48.220;14.480;2023-06-19T05:40:34;14.05;;;10.52;;
17890;SDS011;9071;48.220;14.480;2023-06-19T05:45:37;13.93;;;10.82;;
17890;SDS011;9071;48.220;14.480;2023-06-19T05:50:39;13.38;;;11.15;;
17890;SDS011;9071;48.220;14.480;2023-06-19T05:55:42;13.65;;;11.73;;
17890;SDS011;9071;48.220;14.480;2023-06-19T06:00:45;16.58;;;11.40;;
17890;SDS011;9071;48.220;14.480;2023-06-19T06:05:47;13.20;;;10.82;;
17890;SDS011;9071;48.220;14.480;2023-06-19T06:10:51;14.45;;;11.10;;
17890;SDS011;9071;48.220;14.480;2023-06-19T06:15:53;11.52;;;10.32;;
17890;SDS011;9071;48.220;14.480;2023-06-19T06:20:55;11.98;;;10.70;;
17890;SDS011;9071;48.220;14.480;2023-06-19T06:26:00;21.10;;;12.27;;
17890;SDS011;9071;48.220;14.480;2023-06-19T06:31:02;25.70;;;12.48;;
17890;SDS011;9071;48.220;14.480;2023-06-19T06:36:05;23.60;;;12.43;;
17890;SDS011;9071;48.220;14.480;2023-06-19T06:41:09;21.65;;;11.68;;
17890;SDS011;9071;48.220;14.480;2023-06-19T06:46:11;20.83;;;13.02;;
17890;SDS011;9071;48.220;14.480;2023-06-19T06:51:13;11.13;;;9.80;;
17890;SDS011;9071;48.220;14.480;2023-06-19T06:56:16;13.15;;;10.50;;
17890;SDS011;9071;48.220;14.480;2023-06-19T07:01:18;11.52;;;9.70;;
17890;SDS011;9071;48.220;14.480;2023-06-19T07:06:20;12.20;;;9.38;;
17890;SDS011;9071;48.220;14.480;2023-06-19T07:11:24;14.20;;;9.85;;
17890;SDS011;9071;48.220;14.480;2023-06-19T07:16:26;14.00;;;9.23;;
17890;SDS011;9071;48.220;14.480;2023-06-19T07:21:28;12.48;;;9.38;;
17890;SDS011;9071;48.220;14.480;2023-06-19T07:26:33;13.25;;;9.57;;
17890;SDS011;9071;48.220;14.480;2023-06-19T07:31:35;14.55;;;10.93;;
17890;SDS011;9071;48.220;14.480;2023-06-19T07:36:37;11.85;;;9.95;;
17890;SDS011;9071;48.220;14.480;2023-06-19T07:41:40;13.93;;;9.60;;
17890;SDS011;9071;48.220;14.480;2023-06-19T07:46:42;16.88;;;11.10;;
17890;SDS011;9071;48.220;14.480;2023-06-19T07:51:44;15.07;;;11.35;;
17890;SDS011;9071;48.220;14.480;2023-06-19T07:56:48;17.08;;;12.23;;
17890;SDS011;9071;48.220;14.480;2023-06-19T08:01:50;16.75;;;12.20;;
17890;SDS011;9071;48.220;14.480;2023-06-19T08:06:52;18.55;;;12.18;;
17890;SDS011;9071;48.220;14.480;2023-06-19T08:11:55;22.30;;;14.27;;
17890;SDS011;9071;48.220;14.480;2023-06-19T08:16:58;19.13;;;13.05;;
17890;SDS011;9071;48.220;14.480;2023-06-19T08:22:00;18.10;;;13.13;;
17890;SDS011;9071;48.220;14.480;2023-06-19T08:27:04;21.33;;;12.13;;
17890;SDS011;9071;48.220;14.480;2023-06-19T08:32:07;21.45;;;13.02;;
17890;SDS011;9071;48.220;14.480;2023-06-19T08:37:09;15.57;;;11.50;;
17890;SDS011;9071;48.220;14.480;2023-06-19T08:42:12;14.70;;;12.23;;
17890;SDS011;9071;48.220;14.480;2023-06-19T08:47:15;18.58;;;12.43;;
17890;SDS011;9071;48.220;14.480;2023-06-19T08:52:17;20.85;;;13.27;;
17890;SDS011;9071;48.220;14.480;2023-06-19T08:57:20;19.65;;;13.55;;
17890;SDS011;9071;48.220;14.480;2023-06-19T09:02:22;21.23;;;12.27;;
17890;SDS011;9071;48.220;14.480;2023-06-19T09:07:24;17.17;;;11.48;;
17890;SDS011;9071;48.220;14.480;2023-06-19T09:12:28;13.85;;;11.85;;
17890;SDS011;9071;48.220;14.480;2023-06-19T09:17:30;15.68;;;12.32;;
17890;SDS011;9071;48.220;14.480;2023-06-19T09:22:32;20.13;;;12.52;;
17890;SDS011;9071;48.220;14.480;2023-06-19T09:27:36;13.88;;;11.25;;
17890;SDS011;9071;48.220;14.480;2023-06-19T09:32:38;14.98;;;11.65;;
17890;SDS011;9071;48.220;14.480;2023-06-19T09:37:41;16.05;;;12.05;;
17890;SDS011;9071;48.220;14.480;2023-06-19T09:42:44;21.52;;;12.40;;
17890;SDS011;9071;48.220;14.480;2023-06-19T09:47:51;13.48;;;11.95;;
17890;SDS011;9071;48.220;14.480;2023-06-19T09:52:55;15.23;;;11.52;;
17890;SDS011;9071;48.220;14.480;2023-06-19T09:57:59;13.63;;;11.38;;
17890;SDS011;9071;48.220;14.480;2023-06-19T10:03:03;17.95;;;11.85;;
17890;SDS011;9071;48.220;14.480;2023-06-19T10:08:05;14.20;;;10.80;;
17890;SDS011;9071;48.220;14.480;2023-06-19T10:13:14;17.10;;;10.75;;
17890;SDS011;9071;48.220;14.480;2023-06-19T10:18:17;12.90;;;10.23;;
17890;SDS011;9071;48.220;14.480;2023-06-19T10:23:21;15.00;;;10.32;;
17890;SDS011;9071;48.220;14.480;2023-06-19T10:28:27;17.30;;;10.27;;
17890;SDS011;9071;48.220;14.480;2023-06-19T10:33:30;13.95;;;10.57;;
17890;SDS011;9071;48.220;14.480;2023-06-19T10:38:33;12.00;;;10.15;;
17890;SDS011;9071;48.220;14.480;2023-06-19T10:43:36;11.52;;;9.68;;
17890;SDS011;9071;48.220;14.480;2023-06-19T10:48:38;14.60;;;10.27;;
17890;SDS011;9071;48.220;14.480;2023-06-19T10:53:41;10.68;;;8.70;;
17890;SDS011;9071;48.220;14.480;2023-06-19T10:58:45;10.10;;;8.95;;
17890;SDS011;9071;48.220;14.480;2023-06-19T11:03:47;10.98;;;8.52;;
17890;SDS011;9071;48.220;14.480;2023-06-19T11:08:51;9.70;;;8.70;;
17890;SDS011;9071;48.220;14.480;2023-06-19T11:13:55;11.15;;;9.30;;
17890;SDS011;9071;48.220;14.480;2023-06-19T11:18:57;10.90;;;9.05;;
17890;SDS011;9071;48.220;14.480;2023-06-19T11:23:59;11.30;;;8.75;;
17890;SDS011;9071;48.220;14.480;2023-06-19T11:29:12;9.70;;;8.30;;
17890;SDS011;9071;48.220;14.480;2023-06-19T11:34:15;11.30;;;8.90;;
17890;SDS011;9071;48.220;14.480;2023-06-19T11:39:18;10.20;;;8.38;;
17890;SDS011;9071;48.220;14.480;2023-06-19T11:44:22;8.80;;;7.90;;
17890;SDS011;9071;48.220;14.480;2023-06-19T11:49:24;11.32;;;9.13;;
17890;SDS011;9071;48.220;14.480;2023-06-19T11:54:26;10.15;;;8.43;;
17890;SDS011;9071;48.220;14.480;2023-06-19T11:59:29;10.38;;;8.35;;
17890;SDS011;9071;48.220;14.480;2023-06-19T12:04:32;10.40;;;8.43;;
17890;SDS011;9071;48.220;14.480;2023-06-19T12:09:34;10.55;;;8.32;;
17890;SDS011;9071;48.220;14.480;2023-06-19T12:14:38;9.45;;;8.00;;
17890;SDS011;9071;48.220;14.480;2023-06-19T12:19:40;12.38;;;8.57;;
17890;SDS011;9071;48.220;14.480;2023-06-19T12:24:43;8.20;;;7.40;;
17890;SDS011;9071;48.220;14.480;2023-06-19T12:29:46;10.40;;;7.75;;
17890;SDS011;9071;48.220;14.480;2023-06-19T12:34:48;9.93;;;8.05;;
17890;SDS011;9071;48.220;14.480;2023-06-19T12:39:54;15.68;;;8.15;;
17890;SDS011;9071;48.220;14.480;2023-06-19T12:44:57;9.25;;;7.95;;
17890;SDS011;9071;48.220;14.480;2023-06-19T12:49:59;9.20;;;7.85;;
17890;SDS011;9071;48.220;14.480;2023-06-19T12:55:01;10.68;;;7.30;;
17890;SDS011;9071;48.220;14.480;2023-06-19T13:00:06;8.20;;;7.43;;
17890;SDS011;9071;48.220;14.480;2023-06-19T13:05:12;9.55;;;7.88;;
17890;SDS011;9071;48.220;14.480;2023-06-19T13:10:14;8.32;;;7.50;;
17890;SDS011;9071;48.220;14.480;2023-06-19T13:15:17;8.68;;;7.60;;
17890;SDS011;9071;48.220;14.480;2023-06-19T13:20:19;8.73;;;6.85;;
17890;SDS011;9071;48.220;14.480;2023-06-19T13:25:22;8.77;;;6.55;;
17890;SDS011;9071;48.220;14.480;2023-06-19T13:30:25;10.35;;;6.88;;
17890;SDS011;9071;48.220;14.480;2023-06-19T13:35:27;8.05;;;7.03;;
17890;SDS011;9071;48.220;14.480;2023-06-19T13:40:30;7.32;;;6.30;;
17890;SDS011;9071;48.220;14.480;2023-06-19T13:45:34;7.95;;;6.55;;
17890;SDS011;9071;48.220;14.480;2023-06-19T13:50:36;7.50;;;6.53;;
17890;SDS011;9071;48.220;14.480;2023-06-19T13:55:38;11.65;;;6.80;;
17890;SDS011;9071;48.220;14.480;2023-06-19T14:00:41;9.65;;;6.68;;
17890;SDS011;9071;48.220;14.480;2023-06-19T14:05:43;7.95;;;7.10;;
17890;SDS011;9071;48.220;14.480;2023-06-19T14:10:45;8.75;;;6.68;;
17890;SDS011;9071;48.220;14.480;2023-06-19T14:15:49;11.18;;;6.55;;
17890;SDS011;9071;48.220;14.480;2023-06-19T14:20:51;8.05;;;6.45;;
17890;SDS011;9071;48.220;14.480;2023-06-19T14:25:53;11.15;;;6.30;;
17890;SDS011;9071;48.220;14.480;2023-06-19T14:30:57;11.25;;;7.53;;
17890;SDS011;9071;48.220;14.480;2023-06-19T14:35:59;9.15;;;7.18;;
17890;SDS011;9071;48.220;14.480;2023-06-19T14:41:03;8.93;;;6.80;;
17890;SDS011;9071;48.220;14.480;2023-06-19T14:46:06;7.22;;;6.35;;
17890;SDS011;9071;48.220;14.480;2023-06-19T14:51:08;8.20;;;6.60;;
17890;SDS011;9071;48.220;14.480;2023-06-19T14:56:11;10.90;;;6.22;;
17890;SDS011;9071;48.220;14.480;2023-06-19T15:01:15;8.07;;;5.63;;
17890;SDS011;9071;48.220;14.480;2023-06-19T15:06:18;9.07;;;6.60;;
17890;SDS011;9071;48.220;14.480;2023-06-19T15:11:20;8.90;;;6.35;;
17890;SDS011;9071;48.220;14.480;2023-06-19T15:16:23;9.25;;;5.78;;
17890;SDS011;9071;48.220;14.480;2023-06-19T15:21:25;7.60;;;6.30;;
17890;SDS011;9071;48.220;14.480;2023-06-19T15:26:27;9.38;;;5.82;;
17890;SDS011;9071;48.220;14.480;2023-06-19T15:31:31;8.38;;;5.72;;
17890;SDS011;9071;48.220;14.480;2023-06-19T15:36:34;8.52;;;6.18;;
17890;SDS011;9071;48.220;14.480;2023-06-19T15:41:38;6.88;;;6.05;;
17890;SDS011;9071;48.220;14.480;2023-06-19T15:46:41;12.75;;;6.32;;
17890;SDS011;9071;48.220;14.480;2023-06-19T15:52:01;6.30;;;5.32;;
17890;SDS011;9071;48.220;14.480;2023-06-19T15:57:04;6.68;;;5.40;;
17890;SDS011;9071;48.220;14.480;2023-06-19T16:02:08;8.73;;;5.55;;
17890;SDS011;9071;48.220;14.480;2023-06-19T16:07:10;6.32;;;5.72;;
17890;SDS011;9071;48.220;14.480;2023-06-19T16:12:14;6.18;;;5.40;;
17890;SDS011;9071;48.220;14.480;2023-06-19T16:17:18;7.78;;;5.95;;
17890;SDS011;9071;48.220;14.480;2023-06-19T16:22:20;7.32;;;5.82;;
17890;SDS011;9071;48.220;14.480;2023-06-19T16:27:22;6.63;;;5.65;;
17890;SDS011;9071;48.220;14.480;2023-06-19T16:32:26;10.23;;;5.28;;
17890;SDS011;9071;48.220;14.480;2023-06-19T16:37:28;6.47;;;5.75;;
17890;SDS011;9071;48.220;14.480;2023-06-19T16:42:30;11.82;;;5.80;;
17890;SDS011;9071;48.220;14.480;2023-06-19T16:47:34;6.15;;;4.95;;
17890;SDS011;9071;48.220;14.480;2023-06-19T16:52:36;7.40;;;4.65;;
17890;SDS011;9071;48.220;14.480;2023-06-19T16:57:39;5.22;;;4.72;;
17890;SDS011;9071;48.220;14.480;2023-06-19T17:02:43;6.18;;;4.82;;
17890;SDS011;9071;48.220;14.480;2023-06-19T17:07:45;6.60;;;4.50;;
17890;SDS011;9071;48.220;14.480;2023-06-19T17:12:48;5.25;;;4.60;;
17890;SDS011;9071;48.220;14.480;2023-06-19T17:17:52;8.35;;;4.38;;
17890;SDS011;9071;48.220;14.480;2023-06-19T17:22:54;6.00;;;4.60;;
17890;SDS011;9071;48.220;14.480;2023-06-19T17:27:57;5.35;;;4.72;;
17890;SDS011;9071;48.220;14.480;2023-06-19T17:33:01;6.85;;;5.15;;
17890;SDS011;9071;48.220;14.480;2023-06-19T17:38:03;5.28;;;4.78;;
17890;SDS011;9071;48.220;14.480;2023-06-19T17:43:05;5.90;;;5.30;;
17890;SDS011;9071;48.220;14.480;2023-06-19T17:48:09;5.25;;;4.72;;
17890;SDS011;9071;48.220;14.480;2023-06-19T17:53:11;6.15;;;5.50;;
17890;SDS011;9071;48.220;14.480;2023-06-19T17:58:13;6.38;;;5.30;;
17890;SDS011;9071;48.220;14.480;2023-06-19T18:03:17;6.97;;;4.85;;
17890;SDS011;9071;48.220;14.480;2023-06-19T18:08:19;7.22;;;5.00;;
17890;SDS011;9071;48.220;14.480;2023-06-19T18:13:21;5.47;;;4.97;;
17890;SDS011;9071;48.220;14.480;2023-06-19T18:18:25;5.47;;;4.82;;
17890;SDS011;9071;48.220;14.480;2023-06-19T18:23:27;6.95;;;5.47;;
17890;SDS011;9071;48.220;14.480;2023-06-19T18:28:30;5.80;;;5.13;;
17890;SDS011;9071;48.220;14.480;2023-06-19T18:33:33;6.70;;;5.65;;
17890;SDS011;9071;48.220;14.480;2023-06-19T18:38:35;7.50;;;5.43;;
17890;SDS011;9071;48.220;14.480;2023-06-19T18:43:37;6.68;;;5.25;;
17890;SDS011;9071;48.220;14.480;2023-06-19T18:48:41;9.35;;;5.65;;
17890;SDS011;9071;48.220;14.480;2023-06-19T18:53:44;5.85;;;4.90;;
17890;SDS011;9071;48.220;14.480;2023-06-19T18:58:46;7.63;;;5.57;;
17890;SDS011;9071;48.220;14.480;2023-06-19T19:03:49;12.18;;;6.57;;
17890;SDS011;9071;48.220;14.480;2023-06-19T19:08:51;10.65;;;6.20;;
17890;SDS011;9071;48.220;14.480;2023-06-19T19:13:56;13.77;;;6.50;;
17890;SDS011;9071;48.220;14.480;2023-06-19T19:19:00;12.25;;;6.15;;
17890;SDS011;9071;48.220;14.480;2023-06-19T19:24:02;7.72;;;6.30;;
17890;SDS011;9071;48.220;14.480;2023-06-19T19:29:04;8.30;;;6.63;;
17890;SDS011;9071;48.220;14.480;2023-06-19T19:34:07;10.95;;;6.68;;
17890;SDS011;9071;48.220;14.480;2023-06-19T19:39:10;8.75;;;6.72;;
17890;SDS011;9071;48.220;14.480;2023-06-19T19:44:12;9.18;;;6.75;;
17890;SDS011;9071;48.220;14.480;2023-06-19T19:49:16;7.97;;;6.70;;
17890;SDS011;9071;48.220;14.480;2023-06-19T19:54:17;7.93;;;7.13;;
17890;SDS011;9071;48.220;14.480;2023-06-19T19:59:20;8.40;;;6.93;;
17890;SDS011;9071;48.220;14.480;2023-06-19T20:04:23;10.40;;;6.90;;
17890;SDS011;9071;48.220;14.480;2023-06-19T20:09:25;9.20;;;7.47;;
17890;SDS011;9071;48.220;14.480;2023-06-19T20:14:28;8.77;;;7.25;;
17890;SDS011;9071;48.220;14.480;2023-06-19T20:19:32;9.50;;;7.43;;
17890;SDS011;9071;48.220;14.480;2023-06-19T20:24:34;13.18;;;8.18;;
17890;SDS011;9071;48.220;14.480;2023-06-19T20:29:36;14.77;;;8.50;;
17890;SDS011;9071;48.220;14.480;2023-06-19T20:34:42;10.48;;;8.45;;
17890;SDS011;9071;48.220;14.480;2023-06-19T20:39:44;14.98;;;8.80;;
17890;SDS011;9071;48.220;14.480;2023-06-19T20:44:47;11.73;;;9.00;;
17890;SDS011;9071;48.220;14.480;2023-06-19T20:49:52;13.45;;;8.38;;
17890;SDS011;9071;48.220;14.480;2023-06-19T20:54:54;10.27;;;8.75;;
17890;SDS011;9071;48.220;14.480;2023-06-19T20:59:56;11.30;;;8.63;;
17890;SDS011;9071;48.220;14.480;2023-06-19T21:04:59;10.52;;;8.55;;
17890;SDS011;9071;48.220;14.480;2023-06-19T21:10:01;12.93;;;8.98;;
17890;SDS011;9071;48.220;14.480;2023-06-19T21:15:04;12.88;;;8.60;;
17890;SDS011;9071;48.220;14.480;2023-06-19T21:20:09;16.83;;;9.27;;
17890;SDS011;9071;48.220;14.480;2023-06-19T21:25:12;12.27;;;9.02;;
17890;SDS011;9071;48.220;14.480;2023-06-19T21:30:14;13.05;;;9.10;;
17890;SDS011;9071;48.220;14.480;2023-06-19T21:35:18;10.27;;;8.60;;
17890;SDS011;9071;48.220;14.480;2023-06-19T21:40:20;12.70;;;9.15;;
17890;SDS011;9071;48.220;14.480;2023-06-19T21:45:23;13.68;;;9.57;;
17890;SDS011;9071;48.220;14.480;2023-06-19T21:50:26;13.40;;;8.98;;
17890;SDS011;9071;48.220;14.480;2023-06-19T21:55:29;11.73;;;9.23;;
17890;SDS011;9071;48.220;14.480;2023-06-19T22:00:31;12.35;;;9.50;;
17890;SDS011;9071;48.220;14.480;2023-06-19T22:05:34;10.68;;;9.57;;
17890;SDS011;9071;48.220;14.480;2023-06-19T22:10:36;10.25;;;8.98;;
17890;SDS011;9071;48.220;14.480;2023-06-19T22:15:38;12.10;;;9.40;;
17890;SDS011;9071;48.220;14.480;2023-06-19T22:20:42;10.38;;;9.05;;
17890;SDS011;9071;48.220;14.480;2023-06-19T22:25:44;12.52;;;9.82;;
17890;SDS011;9071;48.220;14.480;2023-06-19T22:30:46;9.90;;;8.90;;
17890;SDS011;9071;48.220;14.480;2023-06-19T22:35:49;11.77;;;9.75;;
17890;SDS011;9071;48.220;14.480;2023-06-19T22:40:51;13.00;;;9.73;;
17890;SDS011;9071;48.220;14.480;2023-06-19T22:45:53;11.35;;;9.85;;
17890;SDS011;9071;48.220;14.480;2023-06-19T22:50:57;11.15;;;9.90;;
17890;SDS011;9071;48.220;14.480;2023-06-19T22:56:00;11.77;;;9.77;;
17890;SDS011;9071;48.220;14.480;2023-06-19T23:01:04;12.40;;;10.48;;
17890;SDS011;9071;48.220;14.480;2023-06-19T23:06:10;12.25;;;9.98;;
17890;SDS011;9071;48.220;14.480;2023-06-19T23:11:12;11.77;;;10.57;;
17890;SDS011;9071;48.220;14.480;2023-06-19T23:16:15;11.20;;;9.80;;
17890;SDS011;9071;48.220;14.480;2023-06-19T23:21:20;11.73;;;9.57;;
17890;SDS011;9071;48.220;14.480;2023-06-19T23:26:22;14.50;;;10.68;;
17890;SDS011;9071;48.220;14.480;2023-06-19T23:31:24;13.85;;;11.63;;
17890;SDS011;9071;48.220;14.480;2023-06-19T23:36:28;13.18;;;11.70;;
17890;SDS011;9071;48.220;14.480;2023-06-19T23:41:30;13.10;;;11.05;;
17890;SDS011;9071;48.220;14.480;2023-06-19T23:46:32;11.95;;;10.75;;
17890;SDS011;9071;48.220;14.480;2023-06-19T23:51:36;13.45;;;11.15;;
17890;SDS011;9071;48.220;14.480;2023-06-19T23:56:38;15.50;;;12.48;;
